sensor_id;sensor_type;location;lat;lon;timestamp;P1;durP1;ratioP1;P2;durP2;ratioP2
6902;SDS011;20232;49.408;8.702;2023-11-21T05:02:02;7.87;;;4.37;;
6902;SDS011;20232;49.408;8.702;2023-11-21T05:04:28;5.47;;;4.07;;
6902;SDS011;20232;49.408;8.702;2023-11-21T05:06:53;4.77;;;4.10;;
6902;SDS011;20232;49.408;8.702;2023-11-21T05:09:18;4.57;;;4.17;;
6902;SDS011;20232;49.408;8.702;2023-11-21T05:11:44;4.93;;;4.10;;
6902;SDS011;20232;49.408;8.702;2023-11-21T05:14:09;6.07;;;4.50;;
6902;SDS011;20232;49.408;8.702;2023-11-21T05:16:35;7.00;;;4.77;;
6902;SDS011;20232;49.408;8.702;2023-11-21T05:19:01;7.60;;;5.83;;
6902;SDS011;20232;49.408;8.702;2023-11-21T05:21:27;5.57;;;5.07;;
6902;SDS011;20232;49.408;8.702;2023-11-21T05:23:52;6.40;;;5.67;;
6902;SDS011;20232;49.408;8.702;2023-11-21T05:26:18;5.27;;;4.80;;
6902;SDS011;20232;49.408;8.702;2023-11-21T05:28:43;7.23;;;5.83;;
6902;SDS011;20232;49.408;8.702;2023-11-21T05:31:09;6.13;;;5.53;;
6902;SDS011;20232;49.408;8.702;2023-11-21T05:33:35;7.23;;;5.47;;
6902;SDS011;20232;49.408;8.702;2023-11-21T05:36:01;7.60;;;5.90;;
6902;SDS011;20232;49.408;8.702;2023-11-21T05:38:27;5.63;;;4.97;;
6902;SDS011;20232;49.408;8.702;2023-11-21T05:40:52;7.40;;;5.63;;
6902;SDS011;20232;49.408;8.702;2023-11-21T05:43:18;6.27;;;5.67;;
6902;SDS011;20232;49.408;8.702;2023-11-21T05:45:43;6.87;;;5.13;;
6902;SDS011;20232;49.408;8.702;2023-11-21T05:48:09;7.37;;;5.90;;
6902;SDS011;20232;49.408;8.702;2023-11-21T05:50:34;6.13;;;5.57;;
6902;SDS011;20232;49.408;8.702;2023-11-21T05:52:59;5.80;;;5.30;;
6902;SDS011;20232;49.408;8.702;2023-11-21T05:55:25;5.47;;;4.97;;
6902;SDS011;20232;49.408;8.702;2023-11-21T05:57:51;6.57;;;5.57;;
6902;SDS011;20232;49.408;8.702;2023-11-21T06:00:16;7.67;;;5.40;;
6902;SDS011;20232;49.408;8.702;2023-11-21T06:02:45;6.77;;;5.33;;
6902;SDS011;20232;49.408;8.702;2023-11-21T06:05:12;6.83;;;6.07;;
6902;SDS011;20232;49.408;8.702;2023-11-21T06:07:37;6.17;;;5.40;;
6902;SDS011;20232;49.408;8.702;2023-11-21T06:10:03;7.97;;;5.63;;
6902;SDS011;20232;49.408;8.702;2023-11-21T06:12:31;6.93;;;6.33;;
6902;SDS011;20232;49.408;8.702;2023-11-21T06:15:01;7.13;;;6.43;;
6902;SDS011;20232;49.408;8.702;2023-11-21T06:17:31;6.67;;;5.87;;
6902;SDS011;20232;49.408;8.702;2023-11-21T06:19:56;8.83;;;5.93;;
6902;SDS011;20232;49.408;8.702;2023-11-21T06:22:22;7.57;;;6.53;;
6902;SDS011;20232;49.408;8.702;2023-11-21T06:24:47;7.80;;;6.60;;
6902;SDS011;20232;49.408;8.702;2023-11-21T06:27:13;10.23;;;7.73;;
6902;SDS011;20232;49.408;8.702;2023-11-21T06:29:38;7.73;;;6.47;;
6902;SDS011;20232;49.408;8.702;2023-11-21T06:32:04;9.20;;;7.73;;
6902;SDS011;20232;49.408;8.702;2023-11-21T06:34:30;8.70;;;7.23;;
6902;SDS011;20232;49.408;8.702;2023-11-21T06:36:56;11.10;;;9.40;;
6902;SDS011;20232;49.408;8.702;2023-11-21T06:39:21;9.30;;;8.10;;
6902;SDS011;20232;49.408;8.702;2023-11-21T06:41:49;10.80;;;8.97;;
6902;SDS011;20232;49.408;8.702;2023-11-21T06:44:15;12.27;;;8.83;;
6902;SDS011;20232;49.408;8.702;2023-11-21T06:46:40;9.20;;;8.00;;
6902;SDS011;20232;49.408;8.702;2023-11-21T06:49:07;8.43;;;7.07;;
6902;SDS011;20232;49.408;8.702;2023-11-21T06:51:33;9.97;;;7.80;;
6902;SDS011;20232;49.408;8.702;2023-11-21T06:53:58;9.27;;;8.17;;
6902;SDS011;20232;49.408;8.702;2023-11-21T06:56:24;11.13;;;8.47;;
6902;SDS011;20232;49.408;8.702;2023-11-21T06:58:49;11.23;;;8.93;;
6902;SDS011;20232;49.408;8.702;2023-11-21T07:01:18;10.97;;;9.17;;
6902;SDS011;20232;49.408;8.702;2023-11-21T07:03:44;10.07;;;8.57;;
6902;SDS011;20232;49.408;8.702;2023-11-21T07:06:10;10.53;;;9.27;;
6902;SDS011;20232;49.408;8.702;2023-11-21T07:08:36;10.40;;;9.17;;
6902;SDS011;20232;49.408;8.702;2023-11-21T07:11:03;11.10;;;9.23;;
6902;SDS011;20232;49.408;8.702;2023-11-21T07:13:29;11.57;;;8.73;;
6902;SDS011;20232;49.408;8.702;2023-11-21T07:15:55;10.97;;;8.73;;
6902;SDS011;20232;49.408;8.702;2023-11-21T07:18:21;9.77;;;8.80;;
6902;SDS011;20232;49.408;8.702;2023-11-21T07:20:46;12.43;;;9.63;;
6902;SDS011;20232;49.408;8.702;2023-11-21T07:23:11;10.97;;;9.77;;
6902;SDS011;20232;49.408;8.702;2023-11-21T07:25:37;11.30;;;10.10;;
6902;SDS011;20232;49.408;8.702;2023-11-21T07:28:02;13.27;;;11.10;;
6902;SDS011;20232;49.408;8.702;2023-11-21T07:30:28;11.93;;;10.37;;
6902;SDS011;20232;49.408;8.702;2023-11-21T07:32:53;12.43;;;10.27;;
6902;SDS011;20232;49.408;8.702;2023-11-21T07:35:19;13.87;;;11.37;;
6902;SDS011;20232;49.408;8.702;2023-11-21T07:37:44;12.17;;;10.30;;
6902;SDS011;20232;49.408;8.702;2023-11-21T07:40:10;12.93;;;9.93;;
6902;SDS011;20232;49.408;8.702;2023-11-21T07:42:36;12.53;;;11.20;;
6902;SDS011;20232;49.408;8.702;2023-11-21T07:45:04;15.97;;;10.97;;
6902;SDS011;20232;49.408;8.702;2023-11-21T07:47:32;14.17;;;10.57;;
6902;SDS011;20232;49.408;8.702;2023-11-21T07:49:59;13.37;;;10.80;;
6902;SDS011;20232;49.408;8.702;2023-11-21T07:52:27;16.43;;;11.30;;
6902;SDS011;20232;49.408;8.702;2023-11-21T07:54:53;14.30;;;11.50;;
6902;SDS011;20232;49.408;8.702;2023-11-21T07:57:18;15.47;;;11.77;;
6902;SDS011;20232;49.408;8.702;2023-11-21T07:59:43;17.17;;;12.30;;
6902;SDS011;20232;49.408;8.702;2023-11-21T08:02:09;18.70;;;12.57;;
6902;SDS011;20232;49.408;8.702;2023-11-21T08:04:35;16.53;;;11.67;;
6902;SDS011;20232;49.408;8.702;2023-11-21T08:07:00;16.60;;;11.87;;
6902;SDS011;20232;49.408;8.702;2023-11-21T08:09:27;19.83;;;13.30;;
6902;SDS011;20232;49.408;8.702;2023-11-21T08:11:52;19.30;;;12.07;;
6902;SDS011;20232;49.408;8.702;2023-11-21T08:14:18;16.33;;;12.50;;
6902;SDS011;20232;49.408;8.702;2023-11-21T08:16:43;20.37;;;13.83;;
6902;SDS011;20232;49.408;8.702;2023-11-21T08:19:09;21.00;;;13.40;;
6902;SDS011;20232;49.408;8.702;2023-11-21T08:21:36;20.57;;;13.10;;
6902;SDS011;20232;49.408;8.702;2023-11-21T08:24:04;20.90;;;13.83;;
6902;SDS011;20232;49.408;8.702;2023-11-21T08:26:30;17.23;;;13.30;;
6902;SDS011;20232;49.408;8.702;2023-11-21T08:28:56;17.03;;;13.33;;
6902;SDS011;20232;49.408;8.702;2023-11-21T08:31:25;19.60;;;12.90;;
6902;SDS011;20232;49.408;8.702;2023-11-21T08:33:51;19.33;;;13.23;;
6902;SDS011;20232;49.408;8.702;2023-11-21T08:36:16;19.87;;;13.27;;
6902;SDS011;20232;49.408;8.702;2023-11-21T08:38:41;18.67;;;13.23;;
6902;SDS011;20232;49.408;8.702;2023-11-21T08:41:07;18.07;;;13.57;;
6902;SDS011;20232;49.408;8.702;2023-11-21T08:43:35;19.50;;;14.03;;
6902;SDS011;20232;49.408;8.702;2023-11-21T08:46:05;18.67;;;12.80;;
6902;SDS011;20232;49.408;8.702;2023-11-21T08:48:36;16.23;;;12.43;;
6902;SDS011;20232;49.408;8.702;2023-11-21T08:51:02;19.33;;;12.57;;
6902;SDS011;20232;49.408;8.702;2023-11-21T08:53:29;17.30;;;11.53;;
6902;SDS011;20232;49.408;8.702;2023-11-21T08:55:54;17.00;;;12.70;;
6902;SDS011;20232;49.408;8.702;2023-11-21T08:58:20;18.13;;;11.47;;
6902;SDS011;20232;49.408;8.702;2023-11-21T09:00:45;17.87;;;11.67;;
6902;SDS011;20232;49.408;8.702;2023-11-21T09:03:11;15.47;;;11.70;;
6902;SDS011;20232;49.408;8.702;2023-11-21T09:05:38;14.33;;;11.30;;
6902;SDS011;20232;49.408;8.702;2023-11-21T09:08:04;15.07;;;10.90;;
6902;SDS011;20232;49.408;8.702;2023-11-21T09:10:29;13.87;;;10.37;;
6902;SDS011;20232;49.408;8.702;2023-11-21T09:12:55;14.73;;;9.80;;
6902;SDS011;20232;49.408;8.702;2023-11-21T09:15:20;11.07;;;8.83;;
6902;SDS011;20232;49.408;8.702;2023-11-21T09:17:45;10.80;;;8.90;;
6902;SDS011;20232;49.408;8.702;2023-11-21T09:20:11;11.17;;;8.50;;
6902;SDS011;20232;49.408;8.702;2023-11-21T09:22:37;9.80;;;8.50;;
6902;SDS011;20232;49.408;8.702;2023-11-21T09:25:02;11.13;;;8.87;;
6902;SDS011;20232;49.408;8.702;2023-11-21T09:27:30;11.63;;;9.13;;
6902;SDS011;20232;49.408;8.702;2023-11-21T09:29:56;10.70;;;9.23;;
6902;SDS011;20232;49.408;8.702;2023-11-21T09:32:23;11.50;;;9.13;;
6902;SDS011;20232;49.408;8.702;2023-11-21T09:34:49;10.87;;;8.77;;
6902;SDS011;20232;49.408;8.702;2023-11-21T09:37:15;10.10;;;8.93;;
6902;SDS011;20232;49.408;8.702;2023-11-21T09:39:41;11.40;;;8.83;;
6902;SDS011;20232;49.408;8.702;2023-11-21T09:42:14;12.63;;;9.03;;
6902;SDS011;20232;49.408;8.702;2023-11-21T09:44:51;10.33;;;8.87;;
6902;SDS011;20232;49.408;8.702;2023-11-21T09:47:21;6.60;;;5.63;;
6902;SDS011;20232;49.408;8.702;2023-11-21T09:49:47;3.80;;;3.50;;
6902;SDS011;20232;49.408;8.702;2023-11-21T09:52:27;7.40;;;6.03;;
6902;SDS011;20232;49.408;8.702;2023-11-21T09:54:53;9.27;;;6.77;;
6902;SDS011;20232;49.408;8.702;2023-11-21T09:57:22;8.33;;;6.70;;
6902;SDS011;20232;49.408;8.702;2023-11-21T09:59:52;7.37;;;6.63;;
6902;SDS011;20232;49.408;8.702;2023-11-21T10:02:27;7.30;;;6.50;;
6902;SDS011;20232;49.408;8.702;2023-11-21T10:04:55;6.60;;;5.73;;
6902;SDS011;20232;49.408;8.702;2023-11-21T10:07:21;5.20;;;4.70;;
6902;SDS011;20232;49.408;8.702;2023-11-21T10:09:47;4.97;;;4.53;;
6902;SDS011;20232;49.408;8.702;2023-11-21T10:12:15;4.47;;;4.07;;
6902;SDS011;20232;49.408;8.702;2023-11-21T10:14:41;5.70;;;4.60;;
6902;SDS011;20232;49.408;8.702;2023-11-21T10:17:09;4.30;;;3.90;;
6902;SDS011;20232;49.408;8.702;2023-11-21T10:19:37;3.97;;;3.67;;
6902;SDS011;20232;49.408;8.702;2023-11-21T10:22:04;5.83;;;3.70;;
6902;SDS011;20232;49.408;8.702;2023-11-21T10:24:29;4.60;;;3.80;;
6902;SDS011;20232;49.408;8.702;2023-11-21T10:26:55;4.83;;;4.33;;
6902;SDS011;20232;49.408;8.702;2023-11-21T10:29:20;3.73;;;3.33;;
6902;SDS011;20232;49.408;8.702;2023-11-21T10:31:49;4.40;;;3.80;;
6902;SDS011;20232;49.408;8.702;2023-11-21T10:34:19;3.80;;;3.50;;
6902;SDS011;20232;49.408;8.702;2023-11-21T10:36:45;4.00;;;3.53;;
6902;SDS011;20232;49.408;8.702;2023-11-21T10:39:14;4.30;;;3.90;;
6902;SDS011;20232;49.408;8.702;2023-11-21T10:41:48;4.23;;;3.83;;
6902;SDS011;20232;49.408;8.702;2023-11-21T10:44:17;4.40;;;4.00;;
6902;SDS011;20232;49.408;8.702;2023-11-21T10:46:49;4.63;;;4.23;;
6902;SDS011;20232;49.408;8.702;2023-11-21T10:49:18;6.33;;;4.73;;
6902;SDS011;20232;49.408;8.702;2023-11-21T10:51:45;5.20;;;4.70;;
6902;SDS011;20232;49.408;8.702;2023-11-21T10:54:10;4.73;;;4.30;;
6902;SDS011;20232;49.408;8.702;2023-11-21T10:56:37;5.27;;;4.77;;
6902;SDS011;20232;49.408;8.702;2023-11-21T10:59:08;8.33;;;5.53;;
6902;SDS011;20232;49.408;8.702;2023-11-21T11:01:36;5.83;;;5.27;;
6902;SDS011;20232;49.408;8.702;2023-11-21T11:04:02;6.60;;;5.80;;
6902;SDS011;20232;49.408;8.702;2023-11-21T11:06:31;6.83;;;5.73;;
6902;SDS011;20232;49.408;8.702;2023-11-21T11:08:58;6.50;;;5.50;;
6902;SDS011;20232;49.408;8.702;2023-11-21T11:11:24;9.23;;;6.40;;
6902;SDS011;20232;49.408;8.702;2023-11-21T11:13:50;7.00;;;6.17;;
6902;SDS011;20232;49.408;8.702;2023-11-21T11:16:17;7.03;;;6.33;;
6902;SDS011;20232;49.408;8.702;2023-11-21T11:18:42;8.77;;;7.10;;
6902;SDS011;20232;49.408;8.702;2023-11-21T11:21:27;8.90;;;7.30;;
6902;SDS011;20232;49.408;8.702;2023-11-21T11:35:04;8.80;;;7.90;;
6902;SDS011;20232;49.408;8.702;2023-11-21T11:37:33;11.63;;;7.90;;
6902;SDS011;20232;49.408;8.702;2023-11-21T11:39:59;7.67;;;6.77;;
6902;SDS011;20232;49.408;8.702;2023-11-21T11:42:25;13.00;;;8.17;;
6902;SDS011;20232;49.408;8.702;2023-11-21T11:44:52;8.77;;;7.23;;
6902;SDS011;20232;49.408;8.702;2023-11-21T11:47:20;8.50;;;7.23;;
6902;SDS011;20232;49.408;8.702;2023-11-21T11:55:03;8.77;;;7.13;;
6902;SDS011;20232;49.408;8.702;2023-11-21T11:57:30;9.83;;;6.73;;
6902;SDS011;20232;49.408;8.702;2023-11-21T12:00:19;7.83;;;6.53;;
6902;SDS011;20232;49.408;8.702;2023-11-21T12:02:52;8.07;;;6.70;;
6902;SDS011;20232;49.408;8.702;2023-11-21T12:05:19;8.77;;;6.87;;
6902;SDS011;20232;49.408;8.702;2023-11-21T12:07:52;7.57;;;6.30;;
6902;SDS011;20232;49.408;8.702;2023-11-21T12:10:25;10.37;;;7.47;;
6902;SDS011;20232;49.408;8.702;2023-11-21T12:12:55;7.83;;;6.83;;
6902;SDS011;20232;49.408;8.702;2023-11-21T12:15:32;6.60;;;5.60;;
6902;SDS011;20232;49.408;8.702;2023-11-21T12:17:58;6.00;;;5.40;;
6902;SDS011;20232;49.408;8.702;2023-11-21T12:20:24;5.53;;;4.90;;
6902;SDS011;20232;49.408;8.702;2023-11-21T12:22:52;6.87;;;5.30;;
6902;SDS011;20232;49.408;8.702;2023-11-21T12:25:19;5.00;;;3.73;;
6902;SDS011;20232;49.408;8.702;2023-11-21T12:27:51;4.60;;;3.87;;
6902;SDS011;20232;49.408;8.702;2023-11-21T12:30:20;5.20;;;4.00;;
6902;SDS011;20232;49.408;8.702;2023-11-21T12:32:50;4.37;;;3.80;;
6902;SDS011;20232;49.408;8.702;2023-11-21T12:35:17;3.77;;;3.13;;
6902;SDS011;20232;49.408;8.702;2023-11-21T12:37:44;3.47;;;2.43;;
6902;SDS011;20232;49.408;8.702;2023-11-21T12:40:11;3.13;;;2.50;;
6902;SDS011;20232;49.408;8.702;2023-11-21T12:42:46;2.03;;;1.90;;
6902;SDS011;20232;49.408;8.702;2023-11-21T12:47:45;1.50;;;1.30;;
6902;SDS011;20232;49.408;8.702;2023-11-21T12:50:20;1.40;;;1.30;;
6902;SDS011;20232;49.408;8.702;2023-11-21T12:52:48;1.77;;;1.20;;
6902;SDS011;20232;49.408;8.702;2023-11-21T12:55:19;1.30;;;1.20;;
6902;SDS011;20232;49.408;8.702;2023-11-21T12:57:48;1.50;;;1.40;;
6902;SDS011;20232;49.408;8.702;2023-11-21T13:00:20;1.53;;;1.43;;
6902;SDS011;20232;49.408;8.702;2023-11-21T13:02:55;1.00;;;1.00;;
6902;SDS011;20232;49.408;8.702;2023-11-21T13:05:27;1.50;;;1.40;;
6902;SDS011;20232;49.408;8.702;2023-11-21T13:07:55;1.30;;;1.20;;
6902;SDS011;20232;49.408;8.702;2023-11-21T13:10:25;1.33;;;1.23;;
6902;SDS011;20232;49.408;8.702;2023-11-21T13:12:55;1.23;;;1.23;;
6902;SDS011;20232;49.408;8.702;2023-11-21T13:15:23;1.20;;;1.20;;
6902;SDS011;20232;49.408;8.702;2023-11-21T13:17:50;1.20;;;1.20;;
6902;SDS011;20232;49.408;8.702;2023-11-21T13:20:16;1.20;;;1.20;;
6902;SDS011;20232;49.408;8.702;2023-11-21T13:22:52;4.10;;;1.40;;
6902;SDS011;20232;49.408;8.702;2023-11-21T13:25:26;1.63;;;1.50;;
6902;SDS011;20232;49.408;8.702;2023-11-21T13:27:55;1.27;;;1.20;;
6902;SDS011;20232;49.408;8.702;2023-11-21T13:30:22;1.20;;;1.20;;
6902;SDS011;20232;49.408;8.702;2023-11-21T13:32:52;1.63;;;1.33;;
6902;SDS011;20232;49.408;8.702;2023-11-21T13:35:27;2.97;;;1.30;;
6902;SDS011;20232;49.408;8.702;2023-11-21T13:37:57;1.97;;;1.20;;
6902;SDS011;20232;49.408;8.702;2023-11-21T13:40:32;1.40;;;1.30;;
6902;SDS011;20232;49.408;8.702;2023-11-21T13:43:05;1.47;;;1.37;;
6902;SDS011;20232;49.408;8.702;2023-11-21T13:45:35;1.33;;;1.30;;
6902;SDS011;20232;49.408;8.702;2023-11-21T13:48:01;2.00;;;1.67;;
6902;SDS011;20232;49.408;8.702;2023-11-21T13:50:27;9.70;;;1.90;;
6902;SDS011;20232;49.408;8.702;2023-11-21T13:53:02;1.50;;;1.40;;
6902;SDS011;20232;49.408;8.702;2023-11-21T13:55:41;3.40;;;1.90;;
6902;SDS011;20232;49.408;8.702;2023-11-21T13:58:07;2.93;;;1.60;;
6902;SDS011;20232;49.408;8.702;2023-11-21T14:00:36;1.87;;;1.50;;
6902;SDS011;20232;49.408;8.702;2023-11-21T14:03:12;1.70;;;1.60;;
6902;SDS011;20232;49.408;8.702;2023-11-21T14:05:49;2.27;;;1.60;;
6902;SDS011;20232;49.408;8.702;2023-11-21T14:08:18;3.43;;;1.50;;
6902;SDS011;20232;49.408;8.702;2023-11-21T14:10:46;1.83;;;1.57;;
6902;SDS011;20232;49.408;8.702;2023-11-21T14:13:16;1.93;;;1.80;;
6902;SDS011;20232;49.408;8.702;2023-11-21T14:15:42;1.67;;;1.60;;
6902;SDS011;20232;49.408;8.702;2023-11-21T14:18:11;2.77;;;1.60;;
6902;SDS011;20232;49.408;8.702;2023-11-21T14:20:39;1.77;;;1.67;;
6902;SDS011;20232;49.408;8.702;2023-11-21T14:23:06;2.53;;;1.60;;
6902;SDS011;20232;49.408;8.702;2023-11-21T14:25:32;3.07;;;2.30;;
6902;SDS011;20232;49.408;8.702;2023-11-21T14:28:07;3.47;;;2.03;;
6902;SDS011;20232;49.408;8.702;2023-11-21T14:30:33;1.70;;;1.60;;
6902;SDS011;20232;49.408;8.702;2023-11-21T14:33:00;2.27;;;2.00;;
6902;SDS011;20232;49.408;8.702;2023-11-21T14:35:27;2.67;;;2.20;;
6902;SDS011;20232;49.408;8.702;2023-11-21T14:37:52;2.77;;;2.10;;
6902;SDS011;20232;49.408;8.702;2023-11-21T14:40:18;5.20;;;2.17;;
6902;SDS011;20232;49.408;8.702;2023-11-21T14:42:49;4.40;;;2.03;;
6902;SDS011;20232;49.408;8.702;2023-11-21T14:45:17;2.80;;;2.30;;
6902;SDS011;20232;49.408;8.702;2023-11-21T14:47:45;4.23;;;2.30;;
6902;SDS011;20232;49.408;8.702;2023-11-21T14:50:36;2.93;;;2.27;;
6902;SDS011;20232;49.408;8.702;2023-11-21T14:53:15;2.47;;;2.27;;
6902;SDS011;20232;49.408;8.702;2023-11-21T14:55:40;4.43;;;2.70;;
6902;SDS011;20232;49.408;8.702;2023-11-21T14:58:20;2.83;;;2.40;;
6902;SDS011;20232;49.408;8.702;2023-11-21T15:00:55;2.63;;;2.30;;
6902;SDS011;20232;49.408;8.702;2023-11-21T15:03:25;6.43;;;2.63;;
6902;SDS011;20232;49.408;8.702;2023-11-21T15:06:09;4.10;;;3.10;;
6902;SDS011;20232;49.408;8.702;2023-11-21T15:08:54;4.43;;;2.90;;
6902;SDS011;20232;49.408;8.702;2023-11-21T15:11:33;2.83;;;2.37;;
6902;SDS011;20232;49.408;8.702;2023-11-21T15:13:59;3.23;;;2.60;;
6902;SDS011;20232;49.408;8.702;2023-11-21T15:16:25;2.87;;;2.60;;
6902;SDS011;20232;49.408;8.702;2023-11-21T15:18:51;4.90;;;3.00;;
6902;SDS011;20232;49.408;8.702;2023-11-21T15:21:18;3.43;;;2.63;;
6902;SDS011;20232;49.408;8.702;2023-11-21T15:23:43;5.93;;;3.40;;
6902;SDS011;20232;49.408;8.702;2023-11-21T15:26:09;3.83;;;3.07;;
6902;SDS011;20232;49.408;8.702;2023-11-21T15:28:35;6.03;;;3.00;;
6902;SDS011;20232;49.408;8.702;2023-11-21T15:31:01;6.50;;;3.27;;
6902;SDS011;20232;49.408;8.702;2023-11-21T15:33:27;4.43;;;2.70;;
6902;SDS011;20232;49.408;8.702;2023-11-21T15:35:53;3.97;;;3.27;;
6902;SDS011;20232;49.408;8.702;2023-11-21T15:38:19;6.17;;;3.10;;
6902;SDS011;20232;49.408;8.702;2023-11-21T15:40:45;4.83;;;3.13;;
6902;SDS011;20232;49.408;8.702;2023-11-21T15:43:11;6.77;;;3.57;;
6902;SDS011;20232;49.408;8.702;2023-11-21T15:45:38;5.60;;;3.50;;
6902;SDS011;20232;49.408;8.702;2023-11-21T15:48:04;7.40;;;3.70;;
6902;SDS011;20232;49.408;8.702;2023-11-21T15:50:30;9.87;;;3.70;;
6902;SDS011;20232;49.408;8.702;2023-11-21T15:52:57;5.77;;;3.27;;
6902;SDS011;20232;49.408;8.702;2023-11-21T15:55:23;4.63;;;3.13;;
6902;SDS011;20232;49.408;8.702;2023-11-21T15:57:49;4.80;;;3.33;;
6902;SDS011;20232;49.408;8.702;2023-11-21T16:00:14;5.53;;;3.20;;
6902;SDS011;20232;49.408;8.702;2023-11-21T16:02:45;4.23;;;3.20;;
6902;SDS011;20232;49.408;8.702;2023-11-21T16:05:11;5.13;;;3.63;;
6902;SDS011;20232;49.408;8.702;2023-11-21T16:07:40;8.00;;;3.67;;
6902;SDS011;20232;49.408;8.702;2023-11-21T16:10:07;5.50;;;3.30;;
6902;SDS011;20232;49.408;8.702;2023-11-21T16:12:36;4.40;;;3.13;;
6902;SDS011;20232;49.408;8.702;2023-11-21T16:15:02;9.20;;;3.37;;
6902;SDS011;20232;49.408;8.702;2023-11-21T16:17:34;4.70;;;3.63;;
6902;SDS011;20232;49.408;8.702;2023-11-21T16:20:01;4.50;;;3.70;;
6902;SDS011;20232;49.408;8.702;2023-11-21T16:22:31;9.17;;;4.20;;
6902;SDS011;20232;49.408;8.702;2023-11-21T16:24:58;6.13;;;3.57;;
6902;SDS011;20232;49.408;8.702;2023-11-21T16:27:25;8.23;;;3.97;;
6902;SDS011;20232;49.408;8.702;2023-11-21T16:29:50;4.83;;;4.33;;
6902;SDS011;20232;49.408;8.702;2023-11-21T16:32:16;7.03;;;4.43;;
6902;SDS011;20232;49.408;8.702;2023-11-21T16:34:42;5.63;;;3.70;;
6902;SDS011;20232;49.408;8.702;2023-11-21T16:37:08;5.73;;;3.67;;
6902;SDS011;20232;49.408;8.702;2023-11-21T16:39:33;5.33;;;3.90;;
6902;SDS011;20232;49.408;8.702;2023-11-21T16:41:59;7.30;;;4.20;;
6902;SDS011;20232;49.408;8.702;2023-11-21T16:44:25;8.10;;;5.17;;
6902;SDS011;20232;49.408;8.702;2023-11-21T16:46:50;9.60;;;4.93;;
6902;SDS011;20232;49.408;8.702;2023-11-21T16:49:21;7.40;;;4.43;;
6902;SDS011;20232;49.408;8.702;2023-11-21T16:51:46;6.27;;;4.27;;
6902;SDS011;20232;49.408;8.702;2023-11-21T16:54:13;7.33;;;3.93;;
6902;SDS011;20232;49.408;8.702;2023-11-21T16:56:40;7.70;;;4.80;;
6902;SDS011;20232;49.408;8.702;2023-11-21T16:59:05;7.83;;;3.80;;
6902;SDS011;20232;49.408;8.702;2023-11-21T17:01:31;6.03;;;3.60;;
6902;SDS011;20232;49.408;8.702;2023-11-21T17:03:56;7.07;;;4.17;;
6902;SDS011;20232;49.408;8.702;2023-11-21T17:06:25;5.37;;;3.80;;
6902;SDS011;20232;49.408;8.702;2023-11-21T17:08:53;8.07;;;4.70;;
6902;SDS011;20232;49.408;8.702;2023-11-21T17:11:20;5.97;;;3.63;;
6902;SDS011;20232;49.408;8.702;2023-11-21T17:13:45;7.70;;;4.40;;
6902;SDS011;20232;49.408;8.702;2023-11-21T17:16:11;7.30;;;5.00;;
6902;SDS011;20232;49.408;8.702;2023-11-21T17:18:37;7.57;;;4.20;;
6902;SDS011;20232;49.408;8.702;2023-11-21T17:21:02;5.57;;;4.20;;
6902;SDS011;20232;49.408;8.702;2023-11-21T17:23:29;8.00;;;4.87;;
6902;SDS011;20232;49.408;8.702;2023-11-21T17:25:55;7.70;;;4.90;;
6902;SDS011;20232;49.408;8.702;2023-11-21T17:28:20;6.57;;;4.17;;
6902;SDS011;20232;49.408;8.702;2023-11-21T17:30:45;8.23;;;4.17;;
6902;SDS011;20232;49.408;8.702;2023-11-21T17:33:11;5.63;;;4.10;;
6902;SDS011;20232;49.408;8.702;2023-11-21T17:35:36;5.83;;;4.03;;
6902;SDS011;20232;49.408;8.702;2023-11-21T17:38:03;7.20;;;3.90;;
6902;SDS011;20232;49.408;8.702;2023-11-21T17:40:30;8.97;;;4.23;;
6902;SDS011;20232;49.408;8.702;2023-11-21T17:42:55;8.43;;;4.43;;
6902;SDS011;20232;49.408;8.702;2023-11-21T17:45:21;8.83;;;5.30;;
6902;SDS011;20232;49.408;8.702;2023-11-21T17:47:46;6.97;;;4.17;;
6902;SDS011;20232;49.408;8.702;2023-11-21T17:50:12;4.90;;;3.63;;
6902;SDS011;20232;49.408;8.702;2023-11-21T17:52:37;4.50;;;3.80;;
6902;SDS011;20232;49.408;8.702;2023-11-21T17:55:03;9.10;;;4.50;;
6902;SDS011;20232;49.408;8.702;2023-11-21T17:57:30;6.13;;;3.53;;
6902;SDS011;20232;49.408;8.702;2023-11-21T17:59:56;7.00;;;3.70;;
6902;SDS011;20232;49.408;8.702;2023-11-21T18:02:22;3.60;;;3.30;;
6902;SDS011;20232;49.408;8.702;2023-11-21T18:04:47;5.03;;;3.07;;
6902;SDS011;20232;49.408;8.702;2023-11-21T18:07:13;4.33;;;3.13;;
6902;SDS011;20232;49.408;8.702;2023-11-21T18:09:38;7.27;;;3.57;;
6902;SDS011;20232;49.408;8.702;2023-11-21T18:12:05;4.57;;;3.37;;
6902;SDS011;20232;49.408;8.702;2023-11-21T18:14:32;4.43;;;3.20;;
6902;SDS011;20232;49.408;8.702;2023-11-21T18:16:58;7.90;;;3.90;;
6902;SDS011;20232;49.408;8.702;2023-11-21T18:19:23;4.10;;;3.30;;
6902;SDS011;20232;49.408;8.702;2023-11-21T18:21:48;6.73;;;4.63;;
6902;SDS011;20232;49.408;8.702;2023-11-21T18:24:14;6.17;;;3.87;;
6902;SDS011;20232;49.408;8.702;2023-11-21T18:26:40;6.63;;;4.50;;
6902;SDS011;20232;49.408;8.702;2023-11-21T18:29:05;5.00;;;3.70;;
6902;SDS011;20232;49.408;8.702;2023-11-21T18:31:31;4.77;;;3.77;;
6902;SDS011;20232;49.408;8.702;2023-11-21T18:33:56;7.27;;;4.00;;
6902;SDS011;20232;49.408;8.702;2023-11-21T18:36:21;7.53;;;4.43;;
6902;SDS011;20232;49.408;8.702;2023-11-21T18:38:47;5.53;;;4.30;;
6902;SDS011;20232;49.408;8.702;2023-11-21T18:41:19;7.13;;;4.63;;
6902;SDS011;20232;49.408;8.702;2023-11-21T18:43:46;7.10;;;4.37;;
6902;SDS011;20232;49.408;8.702;2023-11-21T18:46:11;5.87;;;4.37;;
6902;SDS011;20232;49.408;8.702;2023-11-21T18:48:37;5.27;;;3.87;;
6902;SDS011;20232;49.408;8.702;2023-11-21T18:51:02;7.63;;;4.87;;
6902;SDS011;20232;49.408;8.702;2023-11-21T18:53:28;7.17;;;4.87;;
6902;SDS011;20232;49.408;8.702;2023-11-21T18:55:56;8.80;;;5.47;;
6902;SDS011;20232;49.408;8.702;2023-11-21T18:58:22;9.27;;;5.83;;
6902;SDS011;20232;49.408;8.702;2023-11-21T19:00:48;7.27;;;6.10;;
6902;SDS011;20232;49.408;8.702;2023-11-21T19:03:13;7.80;;;5.90;;
6902;SDS011;20232;49.408;8.702;2023-11-21T19:05:38;8.63;;;6.27;;
6902;SDS011;20232;49.408;8.702;2023-11-21T19:08:05;7.67;;;5.90;;
6902;SDS011;20232;49.408;8.702;2023-11-21T19:10:30;9.10;;;6.20;;
6902;SDS011;20232;49.408;8.702;2023-11-21T19:12:57;11.33;;;6.67;;
6902;SDS011;20232;49.408;8.702;2023-11-21T19:15:23;8.47;;;6.13;;
6902;SDS011;20232;49.408;8.702;2023-11-21T19:17:50;8.70;;;6.17;;
6902;SDS011;20232;49.408;8.702;2023-11-21T19:20:16;8.70;;;6.27;;
6902;SDS011;20232;49.408;8.702;2023-11-21T19:22:43;9.07;;;6.13;;
6902;SDS011;20232;49.408;8.702;2023-11-21T19:25:09;8.63;;;6.50;;
6902;SDS011;20232;49.408;8.702;2023-11-21T19:27:36;9.60;;;6.17;;
6902;SDS011;20232;49.408;8.702;2023-11-21T19:30:02;7.80;;;6.47;;
6902;SDS011;20232;49.408;8.702;2023-11-21T19:32:29;10.37;;;6.70;;
6902;SDS011;20232;49.408;8.702;2023-11-21T19:34:54;11.83;;;6.90;;
6902;SDS011;20232;49.408;8.702;2023-11-21T19:37:20;11.53;;;7.50;;
6902;SDS011;20232;49.408;8.702;2023-11-21T19:39:46;13.03;;;6.83;;
6902;SDS011;20232;49.408;8.702;2023-11-21T19:42:13;10.20;;;7.73;;
6902;SDS011;20232;49.408;8.702;2023-11-21T19:44:40;9.87;;;7.40;;
6902;SDS011;20232;49.408;8.702;2023-11-21T19:47:06;9.63;;;7.17;;
6902;SDS011;20232;49.408;8.702;2023-11-21T19:49:32;11.30;;;7.87;;
6902;SDS011;20232;49.408;8.702;2023-11-21T19:51:59;13.97;;;8.03;;
6902;SDS011;20232;49.408;8.702;2023-11-21T19:54:24;9.80;;;7.57;;
6902;SDS011;20232;49.408;8.702;2023-11-21T19:56:49;10.47;;;8.03;;
6902;SDS011;20232;49.408;8.702;2023-11-21T19:59:15;10.37;;;8.13;;
6902;SDS011;20232;49.408;8.702;2023-11-21T20:01:41;11.60;;;8.17;;
6902;SDS011;20232;49.408;8.702;2023-11-21T20:04:08;12.87;;;7.93;;
6902;SDS011;20232;49.408;8.702;2023-11-21T20:06:37;12.30;;;8.50;;
6902;SDS011;20232;49.408;8.702;2023-11-21T20:09:04;12.47;;;7.87;;
6902;SDS011;20232;49.408;8.702;2023-11-21T20:11:29;11.27;;;8.30;;
6902;SDS011;20232;49.408;8.702;2023-11-21T20:13:56;11.50;;;8.13;;
6902;SDS011;20232;49.408;8.702;2023-11-21T20:16:24;12.60;;;7.87;;